createdAt,value
2022-08-17T00:00:43.078Z,24.80
2022-08-17T00:03:10.686Z,23.90
2022-08-17T00:05:51.851Z,23.30
2022-08-17T00:08:25.294Z,22.48
2022-08-17T00:10:54.754Z,25.27
2022-08-17T00:13:25.675Z,24.38
2022-08-17T00:15:58.713Z,24.75
2022-08-17T00:19:06.127Z,25.00
2022-08-17T00:21:25.180Z,28.75
2022-08-17T00:23:53.792Z,26.77
2022-08-17T00:26:43.180Z,23.90
2022-08-17T00:29:19.916Z,24.27
2022-08-17T00:31:48.868Z,22.98
2022-08-17T00:34:17.084Z,25.42
2022-08-17T00:36:45.053Z,24.85
2022-08-17T00:39:12.922Z,25.27
2022-08-17T00:41:42.264Z,26.33
2022-08-17T00:44:13.081Z,26.17
2022-08-17T00:46:43.555Z,28.25
2022-08-17T00:49:12.809Z,25.05
2022-08-17T00:51:56.806Z,25.23
2022-08-17T00:54:41.822Z,24.40
2022-08-17T00:57:17.006Z,23.92
2022-08-17T00:59:56.052Z,23.23
2022-08-17T01:02:42.236Z,27.42
2022-08-17T01:05:20.888Z,26.13
2022-08-17T01:07:52.879Z,28.88
2022-08-17T01:10:59.577Z,25.20
2022-08-17T01:13:17.486Z,25.65
2022-08-17T01:15:54.952Z,23.77
2022-08-17T01:18:23.330Z,27.15
2022-08-17T01:20:54.131Z,25.42
2022-08-17T01:23:24.133Z,26.08
2022-08-17T01:25:55.099Z,28.50
2022-08-17T01:28:52.568Z,27.77
2022-08-17T01:31:14.042Z,34.05
2022-08-17T01:33:42.503Z,26.23
2022-08-17T01:36:10.595Z,30.20
2022-08-17T01:38:39.590Z,31.70
2022-08-17T01:41:12.435Z,28.88
2022-08-17T01:43:47.698Z,28.83
2022-08-17T01:46:22.453Z,26.92
2022-08-17T01:48:51.253Z,27.15
2022-08-17T01:51:20.101Z,28.38
2022-08-17T01:53:51.546Z,31.02
2022-08-17T01:56:23.921Z,29.27
2022-08-17T01:58:52.532Z,26.38
2022-08-17T02:01:23.485Z,26.58
2022-08-17T02:03:56.341Z,29.23
2022-08-17T02:06:53.715Z,31.65
2022-08-17T02:09:25.965Z,31.58
2022-08-17T02:11:56.386Z,28.40
2022-08-17T02:14:25.810Z,31.40
2022-08-17T02:16:54.389Z,31.67
2022-08-17T02:19:22.755Z,28.95
2022-08-17T02:21:53.131Z,29.65
2022-08-17T02:24:58.741Z,30.90
2022-08-17T02:27:19.837Z,32.50
2022-08-17T02:29:47.835Z,29.80
2022-08-17T02:32:27.201Z,29.73
2022-08-17T02:35:00.019Z,32.67
2022-08-17T02:37:30.047Z,31.92
2022-08-17T02:39:58.764Z,29.90
2022-08-17T02:42:39.672Z,31.13
2022-08-17T02:45:11.542Z,31.20
2022-08-17T02:47:40.492Z,31.98
2022-08-17T02:50:11.481Z,29.77
2022-08-17T02:52:44.187Z,30.23
2022-08-17T02:55:25.002Z,32.17
2022-08-17T02:57:53.589Z,30.00
2022-08-17T03:00:25.439Z,30.15
2022-08-17T03:02:54.090Z,35.28
2022-08-17T03:05:24.394Z,30.35
2022-08-17T03:07:52.595Z,28.92
2022-08-17T03:10:21.622Z,32.17
2022-08-17T03:12:50.338Z,32.53
2022-08-17T03:15:21.381Z,31.70
2022-08-17T03:17:49.862Z,30.90
2022-08-17T03:20:18.657Z,29.42
2022-08-17T03:22:53.408Z,31.15
2022-08-17T03:25:26.590Z,29.90
2022-08-17T03:27:55.063Z,28.77
2022-08-17T03:30:24.373Z,35.30
2022-08-17T03:32:54.899Z,31.00
2022-08-17T03:35:25.835Z,29.60
2022-08-17T03:38:00.709Z,31.00
2022-08-17T03:40:55.591Z,33.28
2022-08-17T03:43:19.545Z,31.65
2022-08-17T03:46:10.742Z,31.42
2022-08-17T03:49:14.838Z,29.77
2022-08-17T03:52:01.402Z,30.77
2022-08-17T03:54:48.425Z,29.73
2022-08-17T03:57:16.729Z,32.13
2022-08-17T03:59:45.351Z,28.55
2022-08-17T04:02:30.139Z,32.65
2022-08-17T04:04:58.943Z,32.35
2022-08-17T04:07:29.764Z,32.15
2022-08-17T04:10:01.694Z,31.52
2022-08-17T04:12:41.968Z,31.02
2022-08-17T04:15:10.399Z,31.08
2022-08-17T04:17:40.340Z,32.00
2022-08-17T04:20:09.485Z,32.78
2022-08-17T04:22:38.374Z,32.45
2022-08-17T04:25:18.209Z,32.00
2022-08-17T04:27:46.245Z,32.53
2022-08-17T04:30:14.498Z,31.90
2022-08-17T04:33:08.627Z,32.03
2022-08-17T04:35:41.309Z,32.35
2022-08-17T04:38:14.132Z,37.28
2022-08-17T04:41:01.463Z,39.20
2022-08-17T04:43:31.584Z,31.85
2022-08-17T04:46:08.490Z,35.72
2022-08-17T04:48:42.711Z,35.45
2022-08-17T04:51:18.651Z,34.28
2022-08-17T04:53:53.827Z,36.05
2022-08-17T04:56:25.806Z,32.88
2022-08-17T04:58:57.673Z,36.60
2022-08-17T05:01:31.233Z,34.00
2022-08-17T05:04:20.765Z,34.05
2022-08-17T05:06:50.383Z,37.50
2022-08-17T05:09:18.823Z,32.78
2022-08-17T05:11:51.802Z,31.50
2022-08-17T05:14:19.661Z,35.53
2022-08-17T05:16:51.083Z,34.80
2022-08-17T05:19:19.260Z,33.80
2022-08-17T05:21:54.334Z,36.17
2022-08-17T05:24:43.083Z,33.65
2022-08-17T05:27:10.352Z,30.05
2022-08-17T05:29:44.608Z,29.10
2022-08-17T05:32:38.614Z,28.75
2022-08-17T05:35:02.106Z,27.02
2022-08-17T05:37:30.039Z,28.40
2022-08-17T05:39:58.010Z,27.48
2022-08-17T05:42:26.112Z,26.77
2022-08-17T05:44:56.710Z,25.70
2022-08-17T05:47:26.354Z,25.80
2022-08-17T05:49:54.545Z,24.00
2022-08-17T05:52:47.616Z,29.15
2022-08-17T05:55:33.116Z,29.80
2022-08-17T05:58:28.859Z,28.15
2022-08-17T06:01:11.342Z,29.77
2022-08-17T06:03:49.462Z,26.35
2022-08-17T06:06:32.451Z,31.00
2022-08-17T06:09:05.783Z,28.67
2022-08-17T06:11:53.480Z,29.92
2022-08-17T06:14:40.186Z,31.08
2022-08-17T06:17:16.548Z,27.35
2022-08-17T06:20:15.357Z,27.88
2022-08-17T06:22:49.768Z,25.30
2022-08-17T06:25:31.685Z,27.70
2022-08-17T06:28:26.578Z,24.52
2022-08-17T06:31:01.220Z,22.88
2022-08-17T06:33:35.341Z,25.45
2022-08-17T06:36:55.761Z,24.95
2022-08-17T06:39:40.197Z,28.80
2022-08-17T06:42:59.972Z,26.05
2022-08-17T06:45:14.204Z,26.63
2022-08-17T06:47:57.459Z,27.40
2022-08-17T06:50:36.628Z,26.58
2022-08-17T06:53:26.761Z,22.83
2022-08-17T06:56:07.585Z,25.23
2022-08-17T06:58:41.605Z,26.33
2022-08-17T07:01:18.022Z,25.73
2022-08-17T07:04:12.586Z,23.95
2022-08-17T07:07:31.979Z,25.13
2022-08-17T07:10:01.277Z,23.55
2022-08-17T07:12:38.439Z,22.85
2022-08-17T07:15:15.727Z,22.95
2022-08-17T07:17:47.577Z,21.13
2022-08-17T07:20:21.140Z,20.27
2022-08-17T07:22:50.499Z,22.02
2022-08-17T07:25:30.520Z,23.08
2022-08-17T07:28:02.386Z,19.10
2022-08-17T07:30:45.747Z,23.00
2022-08-17T07:33:20.960Z,27.52
2022-08-17T07:35:50.078Z,20.37
2022-08-17T07:38:26.781Z,20.15
2022-08-17T07:40:58.009Z,20.70
2022-08-17T07:43:38.749Z,18.90
2022-08-17T07:46:35.033Z,19.95
2022-08-17T07:49:08.861Z,20.02
2022-08-17T07:51:52.883Z,17.48
2022-08-17T07:54:37.834Z,18.00
2022-08-17T07:57:14.363Z,20.45
2022-08-17T08:00:03.057Z,20.10
2022-08-17T08:02:47.330Z,18.70
2022-08-17T08:05:30.857Z,20.23
2022-08-17T08:08:25.987Z,16.40
2022-08-17T08:11:10.782Z,20.73
2022-08-17T08:13:43.614Z,17.40
2022-08-17T08:16:17.205Z,17.42
2022-08-17T08:18:55.770Z,19.25
2022-08-17T08:21:43.378Z,21.90
2022-08-17T08:24:23.121Z,20.13
2022-08-17T08:27:32.767Z,19.83
2022-08-17T08:30:09.655Z,20.55
2022-08-17T08:32:54.194Z,22.00
2022-08-17T08:35:46.579Z,21.05
2022-08-17T08:38:30.828Z,19.58
2022-08-17T08:41:45.802Z,20.20
2022-08-17T08:45:00.615Z,24.95
2022-08-17T08:47:35.469Z,22.80
2022-08-17T08:50:37.852Z,21.38
2022-08-17T08:53:37.731Z,21.17
2022-08-17T08:56:16.759Z,22.95
2022-08-17T08:58:59.416Z,21.20
2022-08-17T09:01:58.517Z,20.63
2022-08-17T09:05:13.310Z,19.13
2022-08-17T09:08:13.579Z,20.80
2022-08-17T09:10:59.542Z,22.67
2022-08-17T09:13:42.509Z,19.58
2022-08-17T09:16:20.247Z,20.50
2022-08-17T09:19:01.263Z,25.25
2022-08-17T09:21:44.610Z,20.38
2022-08-17T09:24:48.806Z,21.23
2022-08-17T09:27:26.624Z,19.10
2022-08-17T09:30:04.827Z,21.77
2022-08-17T09:32:44.599Z,19.55
2022-08-17T09:35:19.396Z,21.50
2022-08-17T09:38:28.043Z,19.00
2022-08-17T09:41:21.643Z,21.02
2022-08-17T09:44:23.641Z,18.52
2022-08-17T09:46:54.164Z,18.33
2022-08-17T09:49:29.197Z,19.13
2022-08-17T09:52:30.321Z,20.48
2022-08-17T09:55:01.456Z,20.55
2022-08-17T09:57:46.542Z,23.00
2022-08-17T10:00:27.177Z,22.80
2022-08-17T10:03:19.849Z,22.60
2022-08-17T10:06:06.842Z,22.55
2022-08-17T10:08:43.535Z,20.67
2022-08-17T10:11:44.883Z,19.08
2022-08-17T10:14:37.961Z,20.27
2022-08-17T10:17:37.299Z,22.73
2022-08-17T10:20:20.565Z,21.67
2022-08-17T10:23:18.810Z,23.25
2022-08-17T10:26:05.363Z,24.23
2022-08-17T10:28:40.785Z,21.60
2022-08-17T10:34:24.529Z,21.73
2022-08-17T10:37:20.127Z,23.65
2022-08-17T10:40:11.952Z,21.65
2022-08-17T10:42:58.868Z,22.02
2022-08-17T10:45:37.881Z,23.60
2022-08-17T10:48:10.059Z,23.38
2022-08-17T10:50:55.909Z,24.02
2022-08-17T10:53:32.805Z,23.50
2022-08-17T10:56:12.924Z,24.90
2022-08-17T10:59:02.122Z,22.52
2022-08-17T11:01:57.890Z,22.10
2022-08-17T11:04:34.808Z,25.33
2022-08-17T11:07:32.283Z,30.95
2022-08-17T11:10:21.383Z,24.90
2022-08-17T11:13:21.778Z,29.23
2022-08-17T11:16:32.605Z,22.60
2022-08-17T11:19:09.967Z,25.63
2022-08-17T11:21:51.979Z,25.60
2022-08-17T11:24:40.353Z,25.20
2022-08-17T11:27:33.980Z,24.48
2022-08-17T11:30:35.938Z,26.83
2022-08-17T11:33:38.306Z,28.77
2022-08-17T11:36:26.558Z,26.48
2022-08-17T11:39:13.076Z,27.15
2022-08-17T11:41:48.839Z,26.63
2022-08-17T11:44:53.548Z,28.88
2022-08-17T11:48:16.120Z,24.52
2022-08-17T11:51:46.902Z,29.30
2022-08-17T11:54:34.327Z,25.83
2022-08-17T11:57:25.717Z,24.20
2022-08-17T12:00:05.797Z,30.45
2022-08-17T12:02:47.343Z,27.17
2022-08-17T12:05:21.040Z,28.58
2022-08-17T12:07:55.204Z,28.42
2022-08-17T12:13:04.697Z,28.52
2022-08-17T12:15:37.804Z,30.63
2022-08-17T12:18:05.897Z,30.85
2022-08-17T12:20:40.680Z,32.92
2022-08-17T12:25:51.307Z,28.17
2022-08-17T12:28:30.379Z,29.25
2022-08-17T12:31:21.379Z,28.25
2022-08-17T12:33:51.783Z,28.92
2022-08-17T12:36:24.835Z,31.00
2022-08-17T12:39:14.058Z,31.20
2022-08-17T12:41:46.986Z,31.52
2022-08-17T12:44:16.644Z,32.60
2022-08-17T12:47:03.250Z,32.33
2022-08-17T12:49:37.853Z,30.30
2022-08-17T12:52:29.644Z,29.23
2022-08-17T12:55:08.979Z,30.92
2022-08-17T12:57:44.597Z,29.70
2022-08-17T13:00:20.505Z,34.72
2022-08-17T13:03:02.386Z,31.48
2022-08-17T13:05:40.968Z,30.08
2022-08-17T13:08:30.295Z,30.42
2022-08-17T13:11:06.971Z,29.58
2022-08-17T13:13:44.758Z,33.45
2022-08-17T13:16:17.155Z,32.15
2022-08-17T13:19:12.024Z,31.55
2022-08-17T13:21:50.564Z,32.30
2022-08-17T13:24:38.399Z,33.92
2022-08-17T13:27:12.154Z,32.90
2022-08-17T13:29:52.992Z,32.43
2022-08-17T13:32:33.790Z,32.00
2022-08-17T13:35:28.397Z,33.60
2022-08-17T13:41:35.189Z,31.75
2022-08-17T13:44:43.334Z,33.63
2022-08-17T13:47:22.257Z,34.28
2022-08-17T13:49:50.943Z,35.92
2022-08-17T13:52:58.813Z,33.20
2022-08-17T13:55:30.476Z,32.72
2022-08-17T13:58:06.515Z,31.98
2022-08-17T14:00:49.679Z,31.58
2022-08-17T14:03:25.072Z,31.35
2022-08-17T14:06:05.781Z,35.78
2022-08-17T14:08:34.167Z,34.58
2022-08-17T14:11:28.540Z,35.67
2022-08-17T14:14:25.896Z,34.17
2022-08-17T14:17:23.483Z,35.53
2022-08-17T14:20:23.104Z,36.33
2022-08-17T14:23:41.237Z,35.35
2022-08-17T14:26:23.299Z,34.55
2022-08-17T14:28:56.445Z,35.50
2022-08-17T14:31:28.007Z,33.30
2022-08-17T14:33:56.183Z,36.97
2022-08-17T14:36:24.169Z,38.05
2022-08-17T14:38:52.644Z,38.78
2022-08-17T14:41:23.378Z,38.50
2022-08-17T14:43:53.404Z,44.75
2022-08-17T14:46:21.267Z,41.85
2022-08-17T14:48:57.186Z,48.35
2022-08-17T14:51:28.495Z,49.65
2022-08-17T14:53:57.285Z,45.92
2022-08-17T14:56:26.070Z,46.20
2022-08-17T14:58:54.212Z,41.78
2022-08-17T15:01:24.406Z,39.80
2022-08-17T15:03:53.941Z,36.70
2022-08-17T15:06:22.698Z,37.60
2022-08-17T15:08:51.137Z,37.13
2022-08-17T15:11:19.012Z,33.55
2022-08-17T15:13:53.002Z,29.40
2022-08-17T15:16:21.415Z,28.25
2022-08-17T15:18:50.175Z,30.40
2022-08-17T15:21:22.145Z,30.83
2022-08-17T15:23:51.035Z,27.67
2022-08-17T15:26:25.693Z,27.80
2022-08-17T15:28:56.055Z,26.73
2022-08-17T15:31:32.337Z,28.30
2022-08-17T15:34:05.444Z,27.27
2022-08-17T15:36:36.512Z,24.17
2022-08-17T15:39:04.725Z,25.77
2022-08-17T15:41:32.972Z,24.83
2022-08-17T15:44:00.886Z,26.55
2022-08-17T15:46:29.044Z,28.88
2022-08-17T15:49:00.240Z,31.83
2022-08-17T15:51:30.994Z,33.50
2022-08-17T15:54:19.201Z,32.83
2022-08-17T15:56:50.936Z,35.88
2022-08-17T15:59:19.454Z,39.13
2022-08-17T16:03:15.877Z,36.03
2022-08-17T16:04:44.026Z,44.72
2022-08-17T16:07:14.585Z,42.33
2022-08-17T16:09:44.058Z,38.97
2022-08-17T16:12:16.589Z,37.85
2022-08-17T16:14:45.981Z,39.70
2022-08-17T16:17:38.918Z,41.70
2022-08-17T16:20:04.340Z,40.30
2022-08-17T16:22:35.525Z,39.63
2022-08-17T16:25:11.406Z,39.90
2022-08-17T16:27:39.573Z,40.28
2022-08-17T16:30:13.676Z,39.45
2022-08-17T16:32:45.480Z,39.65
2022-08-17T16:35:17.349Z,39.70
2022-08-17T16:37:45.867Z,39.67
2022-08-17T16:40:16.714Z,41.25
2022-08-17T16:42:49.420Z,38.72
2022-08-17T16:45:24.958Z,42.45
2022-08-17T16:48:01.950Z,43.05
2022-08-17T16:50:31.814Z,43.28
2022-08-17T16:53:18.589Z,42.70
2022-08-17T16:55:49.018Z,45.72
2022-08-17T16:58:16.951Z,41.40
2022-08-17T17:00:48.587Z,41.38
2022-08-17T17:03:20.556Z,41.33
2022-08-17T17:05:57.605Z,41.83
2022-08-17T17:09:03.897Z,38.95
2022-08-17T17:11:51.145Z,38.03
2022-08-17T17:14:30.487Z,34.72
2022-08-17T17:17:17.388Z,32.25
2022-08-17T17:19:47.296Z,33.47
2022-08-17T17:22:25.338Z,33.13
2022-08-17T17:25:01.208Z,31.85
2022-08-17T17:27:42.507Z,35.75
2022-08-17T17:30:33.357Z,31.67
2022-08-17T17:33:14.594Z,29.77
2022-08-17T17:35:50.817Z,28.90
2022-08-17T17:38:29.120Z,28.35
2022-08-17T17:41:02.484Z,21.55
2022-08-17T17:43:39.622Z,30.33
2022-08-17T17:46:28.688Z,27.67
2022-08-17T17:49:00.950Z,26.63
2022-08-17T17:52:09.201Z,22.77
2022-08-17T17:54:53.967Z,23.92
2022-08-17T17:57:47.026Z,22.67
2022-08-17T18:00:23.452Z,23.33
2022-08-17T18:03:13.243Z,27.65
2022-08-17T18:05:57.463Z,27.42
2022-08-17T18:11:55.067Z,26.00
2022-08-17T18:14:45.596Z,26.20
2022-08-17T18:17:16.493Z,26.75
2022-08-17T18:19:45.167Z,21.13
2022-08-17T18:22:21.434Z,22.63
2022-08-17T18:24:56.414Z,26.00
2022-08-17T18:27:51.285Z,24.88
2022-08-17T18:30:19.945Z,23.63
2022-08-17T18:32:48.355Z,23.98
2022-08-17T18:35:19.420Z,22.65
2022-08-17T18:38:17.986Z,22.38
2022-08-17T18:41:04.490Z,23.45
2022-08-17T18:43:53.221Z,23.58
2022-08-17T18:46:28.417Z,24.50
2022-08-17T18:49:03.494Z,26.33
2022-08-17T18:51:40.677Z,25.80
2022-08-17T18:54:23.040Z,30.05
2022-08-17T18:56:56.209Z,28.63
2022-08-17T18:59:46.993Z,31.38
2022-08-17T19:02:38.647Z,31.80
2022-08-17T19:05:08.556Z,34.08
2022-08-17T19:07:41.517Z,34.83
2022-08-17T19:10:28.385Z,34.38
2022-08-17T19:13:13.994Z,34.17
2022-08-17T19:16:20.332Z,34.38
2022-08-17T19:19:17.218Z,35.03
2022-08-17T19:21:59.034Z,35.65
2022-08-17T19:24:31.415Z,37.60
2022-08-17T19:27:41.797Z,42.90
2022-08-17T19:30:15.682Z,36.67
2022-08-17T19:32:43.722Z,39.63
2022-08-17T19:35:17.328Z,41.17
2022-08-17T19:38:20.202Z,36.83
2022-08-17T19:41:00.542Z,43.17
2022-08-17T19:44:26.914Z,46.30
2022-08-17T19:47:55.158Z,40.90
2022-08-17T19:50:39.087Z,43.13
2022-08-17T19:56:00.010Z,39.67
2022-08-17T19:58:45.950Z,34.38
2022-08-17T20:01:27.942Z,37.63
2022-08-17T20:04:19.278Z,36.67
2022-08-17T20:06:53.134Z,41.60
2022-08-17T20:09:39.069Z,40.70
2022-08-17T20:12:23.652Z,36.95
2022-08-17T20:14:57.316Z,38.20
2022-08-17T20:17:35.058Z,37.75
2022-08-17T20:20:19.631Z,37.58
2022-08-17T20:23:07.217Z,35.45
2022-08-17T20:25:59.369Z,37.08
2022-08-17T20:28:30.925Z,35.70
2022-08-17T20:30:59.774Z,39.70
2022-08-17T20:33:39.865Z,39.92
2022-08-17T20:36:21.906Z,34.78
2022-08-17T20:38:55.999Z,32.30
2022-08-17T20:41:26.917Z,34.83
2022-08-17T20:43:58.654Z,37.50
2022-08-17T20:46:36.789Z,36.92
2022-08-17T20:49:24.139Z,37.67
2022-08-17T20:52:00.633Z,35.83
2022-08-17T20:54:44.582Z,37.60
2022-08-17T20:57:32.132Z,35.90
2022-08-17T21:00:17.098Z,33.50
2022-08-17T21:02:52.616Z,33.13
2022-08-17T21:06:00.293Z,36.00
2022-08-17T21:08:54.739Z,36.83
2022-08-17T21:12:03.205Z,36.38
2022-08-17T21:14:29.715Z,37.95
2022-08-17T21:17:23.728Z,36.17
2022-08-17T21:20:12.602Z,38.38
2022-08-17T21:22:54.915Z,32.38
2022-08-17T21:25:49.246Z,32.20
2022-08-17T21:29:01.453Z,31.90
2022-08-17T21:31:49.059Z,27.60
2022-08-17T21:34:29.282Z,31.55
2022-08-17T21:37:21.682Z,32.30
2022-08-17T21:40:11.613Z,31.50
2022-08-17T21:42:50.728Z,33.35
2022-08-17T21:45:24.294Z,30.45
2022-08-17T21:48:18.809Z,30.48
2022-08-17T21:50:57.938Z,32.70
2022-08-17T21:53:38.795Z,27.65
2022-08-17T21:56:14.672Z,29.92
2022-08-17T21:58:54.754Z,29.55
2022-08-17T22:01:35.376Z,30.10
2022-08-17T22:04:18.506Z,30.20
2022-08-17T22:06:52.282Z,29.85
2022-08-17T22:09:46.022Z,26.75
2022-08-17T22:12:22.694Z,31.15
2022-08-17T22:14:56.199Z,27.75
2022-08-17T22:17:38.175Z,26.80
2022-08-17T22:20:14.857Z,26.95
2022-08-17T22:23:10.339Z,30.00
2022-08-17T22:26:09.757Z,28.10
2022-08-17T22:28:45.750Z,26.75
2022-08-17T22:31:29.282Z,28.33
2022-08-17T22:34:00.384Z,27.35
2022-08-17T22:36:38.956Z,30.88
2022-08-17T22:39:09.530Z,27.65
2022-08-17T22:41:59.285Z,29.67
2022-08-17T22:44:35.573Z,25.05
2022-08-17T22:47:30.711Z,28.67
2022-08-17T22:50:12.756Z,27.98
2022-08-17T22:53:03.085Z,29.73
2022-08-17T22:55:52.064Z,27.80
2022-08-17T22:58:42.118Z,28.25
2022-08-17T23:01:29.136Z,26.40
2022-08-17T23:04:10.926Z,27.05
2022-08-17T23:06:42.431Z,26.23
2022-08-17T23:09:10.487Z,25.42
2022-08-17T23:11:52.269Z,25.13
2022-08-17T23:14:21.441Z,21.10
2022-08-17T23:16:50.907Z,28.33
2022-08-17T23:19:21.350Z,22.65
2022-08-17T23:21:52.361Z,26.65
2022-08-17T23:24:23.076Z,21.70
2022-08-17T23:26:51.164Z,22.25
2022-08-17T23:29:21.555Z,19.77
2022-08-17T23:31:50.977Z,22.02
2022-08-17T23:34:19.419Z,23.67
2022-08-17T23:36:53.186Z,24.77
2022-08-17T23:39:24.416Z,21.90
2022-08-17T23:41:59.050Z,20.45
2022-08-17T23:44:28.720Z,21.90
2022-08-17T23:46:57.196Z,24.52
2022-08-17T23:49:25.495Z,22.15
2022-08-17T23:51:56.591Z,24.15
2022-08-17T23:54:41.543Z,23.25
2022-08-17T23:57:12.048Z,21.75
2022-08-17T23:59:40.656Z,19.25
